EST,Max TemperatureF,Mean TemperatureF,Min TemperatureF,Max Dew PointF,MeanDew PointF,Min DewpointF,Max Humidity, Mean Humidity, Min Humidity, Max Sea Level PressureIn, Mean Sea Level PressureIn, Min Sea Level PressureIn, Max VisibilityMiles, Mean VisibilityMiles, Min VisibilityMiles, Max Wind SpeedMPH, Mean Wind SpeedMPH, Max Gust SpeedMPH,PrecipitationIn, CloudCover, Events, WindDirDegrees
2012-12-1,43,40,38,40,35,30,91,77,71,30.53,30.47,30.44,10,9,3,12,8,,0.00,8,,30
2012-12-2,52,46,41,47,44,40,98,92,76,30.43,30.27,30.14,10,4,0,5,1,,0.03,6,Fog-Rain,271
2012-12-3,64,56,47,51,48,45,94,80,53,30.27,30.19,30.11,10,7,2,9,3,,0.00,2,,267
2012-12-4,68,57,46,55,50,43,94,84,62,30.27,30.17,29.98,10,8,2,5,0,,0.02,4,Rain,131
2012-12-5,59,48,36,53,37,19,87,60,39,30.26,30.07,29.91,10,10,10,20,8,29,0.01,4,Rain,307
2012-12-6,42,36,31,25,19,16,70,51,36,30.39,30.32,30.25,10,10,10,10,4,18,0.00,0,,342
2012-12-7,45,38,31,43,34,26,95,85,71,30.30,30.17,30.02,10,7,2,4,0,,0.12,6,Rain,290
2012-12-8,51,48,44,49,47,43,97,95,90,30.02,29.94,29.88,10,4,1,9,2,,0.31,8,Rain,282
2012-12-9,49,47,44,49,43,37,97,89,72,30.25,30.15,30.01,10,6,0,13,5,20,0.15,7,Fog-Rain,44
2012-12-10,59,52,45,59,52,45,99,97,95,30.00,29.72,29.56,7,3,0,6,2,,0.03,8,Fog-Rain-Thunderstorm,352
2012-12-11,50,50,41,56,36,31,97,67,52,30.21,29.93,29.58,10,10,3,20,7,28,0.04,7,Rain,327
2012-12-12,45,40,35,32,28,23,82,60,43,30.45,30.36,30.21,10,10,10,7,3,,0.00,0,,319
2012-12-13,48,40,33,29,26,23,79,60,38,30.48,30.41,30.34,10,10,10,8,2,9,0.00,0,,349
2012-12-14,51,40,31,28,26,25,75,58,36,30.33,30.24,30.16,10,10,10,14,3,18,0.00,0,,265
2012-12-15,48,40,33,36,31,28,82,67,53,30.33,30.27,30.21,10,10,10,7,3,,0.00,2,,223
2012-12-16,50,48,45,47,44,36,95,86,69,30.20,30.04,29.90,10,7,1,14,7,18,0.24,8,Rain,75
2012-12-17,47,44,42,46,43,40,97,93,90,29.91,29.83,29.62,10,6,2,13,7,18,0.21,8,Rain,40
2012-12-18,57,50,43,49,44,35,97,84,66,29.64,29.53,29.46,10,7,2,23,8,32,0.46,6,Rain-Thunderstorm,289
2012-12-19,49,44,39,35,30,27,75,58,44,30.14,29.86,29.65,10,10,10,24,13,32,0.00,0,,293
2012-12-20,51,42,34,44,31,26,81,67,52,30.23,30.11,29.86,10,10,7,15,5,20,0.01,2,Rain,82
2012-12-21,58,48,37,56,35,28,94,69,58,29.71,29.32,29.10,10,8,2,34,18,45,0.68,8,Rain,225
2012-12-22,41,38,36,32,25,19,83,58,44,29.85,29.60,29.35,10,10,10,28,15,41,0.00,6,Rain-Snow,279
2012-12-23,44,39,34,26,22,16,63,51,32,29.98,29.92,29.86,10,10,10,17,9,25,0.00,2,,264
2012-12-24,41,35,29,35,26,21,95,68,47,30.11,30.03,29.94,10,8,2,7,3,,0.07,2,Rain-Snow,341
2012-12-25,42,38,34,36,32,27,96,79,62,30.27,30.08,29.91,10,8,2,14,6,22,0.01,6,,334
2012-12-26,42,36,30,40,29,22,93,80,63,30.29,30.04,29.48,10,8,1,25,9,37,0.86,5,Rain-Snow,49
2012-12-27,41,36,32,39,31,20,93,77,62,29.86,29.54,29.28,10,8,1,29,17,40,0.71,6,Rain-Thunderstorm,315
2012-12-28,40,36,31,25,23,20,77,64,54,30.09,30.02,29.87,10,10,10,20,11,31,0.00,3,,303
2012-12-29,35,32,30,33,29,25,95,84,73,30.06,29.76,29.52,10,8,1,14,3,18,0.12,6,Rain-Snow,355
2012-12-30,37,33,29,28,19,15,80,57,44,30.21,29.95,29.61,10,10,10,26,17,43,0.00,1,,298
2012-12-31,40,34,29,26,21,14,65,55,50,30.22,30.09,29.91,10,10,10,15,8,24,0.00,4,,256